createdAt,value
2019-02-26T00:00:49.682Z,-909.43
2019-02-26T00:01:50.496Z,-911.26
2019-02-26T00:02:50.645Z,-913.92
2019-02-26T00:03:48.876Z,-915.63
2019-02-26T00:04:50.093Z,-916.78
2019-02-26T00:05:51.806Z,-913.89
2019-02-26T00:06:51.327Z,-914.01
2019-02-26T00:07:51.218Z,-917.91
2019-02-26T00:08:51.465Z,-918.02
2019-02-26T00:09:51.202Z,-923.00
2019-02-26T00:10:50.734Z,-918.14
2019-02-26T00:11:51.047Z,-916.85
2019-02-26T00:12:51.196Z,-914.01
2019-02-26T00:13:52.324Z,-917.73
2019-02-26T00:14:52.484Z,-912.60
2019-02-26T00:15:52.011Z,-913.83
2019-02-26T00:16:52.258Z,-920.05
2019-02-26T00:17:53.034Z,-921.02
2019-02-26T00:18:52.784Z,-920.35
2019-02-26T00:19:53.101Z,-918.25
2019-02-26T00:20:54.081Z,-912.89
2019-02-26T00:21:54.316Z,-915.63
2019-02-26T00:22:55.280Z,-916.29
2019-02-26T00:23:54.074Z,-917.70
2019-02-26T00:24:54.327Z,-927.05
2019-02-26T00:25:54.607Z,-922.64
2019-02-26T00:26:54.851Z,-927.19
2019-02-26T00:27:56.406Z,-923.59
2019-02-26T00:28:57.158Z,-920.87
2019-02-26T00:29:55.638Z,-928.48
2019-02-26T00:30:57.174Z,-923.92
2019-02-26T00:31:57.692Z,-925.51
2019-02-26T00:32:57.868Z,-919.41
2019-02-26T00:33:56.691Z,-923.70
2019-02-26T00:34:57.455Z,-923.14
2019-02-26T00:35:57.251Z,-916.57
2019-02-26T00:36:59.048Z,-926.61
2019-02-26T00:37:57.718Z,-921.61
2019-02-26T00:38:58.399Z,-915.34
2019-02-26T00:39:58.209Z,-919.70
2019-02-26T00:40:59.481Z,-914.02
2019-02-26T00:42:00.378Z,-921.58
2019-02-26T00:43:00.163Z,-919.11
2019-02-26T00:43:59.781Z,-916.68
2019-02-26T00:45:00.164Z,-918.17
2019-02-26T00:46:00.663Z,-917.76
2019-02-26T00:47:01.569Z,-916.25
2019-02-26T00:48:00.316Z,-913.83
2019-02-26T00:49:00.868Z,-912.61
2019-02-26T00:50:00.828Z,-914.01
2019-02-26T00:51:03.029Z,-919.40
2019-02-26T00:52:01.389Z,-912.84
2019-02-26T00:53:02.143Z,-915.90
2019-02-26T00:54:03.711Z,-917.26
2019-02-26T00:55:03.058Z,-913.68
2019-02-26T00:56:03.122Z,-913.01
2019-02-26T00:57:03.438Z,-911.01
2019-02-26T00:58:03.363Z,-913.20
2019-02-26T00:59:03.447Z,-914.46
2019-02-26T01:00:05.285Z,-911.20
2019-02-26T01:01:03.831Z,-917.14
2019-02-26T01:02:03.998Z,-915.46
2019-02-26T01:03:05.863Z,-913.46
2019-02-26T01:04:04.537Z,-917.95
2019-02-26T01:05:06.253Z,-918.41
2019-02-26T01:06:05.810Z,-910.92
2019-02-26T01:07:05.405Z,-916.24
2019-02-26T01:08:06.017Z,-911.10
2019-02-26T01:09:08.245Z,-916.01
2019-02-26T01:10:06.073Z,-911.42
2019-02-26T01:11:08.199Z,-916.37
2019-02-26T01:12:08.599Z,-916.45
2019-02-26T01:13:07.154Z,-917.56
2019-02-26T01:14:07.117Z,-918.41
2019-02-26T01:15:09.323Z,-917.47
2019-02-26T01:16:07.643Z,-916.01
2019-02-26T01:17:09.759Z,-917.04
2019-02-26T01:18:08.155Z,-920.45
2019-02-26T01:19:09.074Z,-919.95
2019-02-26T01:20:08.652Z,-917.05
2019-02-26T01:21:08.928Z,-921.01
2019-02-26T01:22:09.203Z,-914.96
2019-02-26T01:23:09.470Z,-918.69
2019-02-26T01:24:09.721Z,-918.95
2019-02-26T01:25:10.271Z,-913.97
2019-02-26T01:26:12.106Z,-915.78
2019-02-26T01:27:10.495Z,-920.66
2019-02-26T01:28:14.031Z,-922.57
2019-02-26T01:29:11.016Z,-919.59
2019-02-26T01:30:11.268Z,-918.47
2019-02-26T01:31:11.528Z,-917.69
2019-02-26T01:32:13.342Z,-918.43
2019-02-26T01:33:12.109Z,-919.94
2019-02-26T01:34:13.688Z,-920.68
2019-02-26T01:35:12.962Z,-919.94
2019-02-26T01:36:13.949Z,-922.80
2019-02-26T01:37:13.098Z,-921.47
2019-02-26T01:38:14.353Z,-923.05
2019-02-26T01:39:13.810Z,-925.55
2019-02-26T01:40:15.843Z,-924.02
2019-02-26T01:41:15.484Z,-929.31
2019-02-26T01:42:15.609Z,-925.76
2019-02-26T01:43:14.669Z,-922.21
2019-02-26T01:44:14.929Z,-919.03
2019-02-26T01:45:15.175Z,-924.05
2019-02-26T01:46:16.339Z,-926.28
2019-02-26T01:47:17.173Z,-922.16
2019-02-26T01:48:18.001Z,-921.85
2019-02-26T01:49:16.954Z,-923.87
2019-02-26T01:50:16.606Z,-919.32
2019-02-26T01:51:17.077Z,-924.65
2019-02-26T01:52:17.471Z,-928.47
2019-02-26T01:53:19.112Z,-929.23
2019-02-26T01:54:17.517Z,-926.66
2019-02-26T01:55:18.179Z,-924.25
2019-02-26T01:56:19.906Z,-922.13
2019-02-26T01:57:18.336Z,-922.83
2019-02-26T01:58:18.672Z,-923.13
2019-02-26T01:59:19.149Z,-922.13
2019-02-26T02:00:19.108Z,-927.49
2019-02-26T02:01:21.293Z,-924.26
2019-02-26T02:02:20.294Z,-918.46
2019-02-26T02:03:20.736Z,-918.18
2019-02-26T02:04:20.128Z,-922.76
2019-02-26T02:05:21.498Z,-926.39
2019-02-26T02:06:20.687Z,-924.95
2019-02-26T02:07:21.373Z,-927.34
2019-02-26T02:08:22.611Z,-923.43
2019-02-26T02:09:22.631Z,-923.39
2019-02-26T02:10:21.727Z,-928.75
2019-02-26T02:11:23.681Z,-923.68
2019-02-26T02:12:25.439Z,-924.97
2019-02-26T02:13:25.908Z,-873.13
2019-02-26T02:14:22.782Z,-875.75
2019-02-26T02:15:23.694Z,-870.94
2019-02-26T02:16:24.141Z,-869.01
2019-02-26T02:17:23.602Z,-869.91
2019-02-26T02:18:25.447Z,-868.87
2019-02-26T02:19:25.175Z,-872.48
2019-02-26T02:20:24.384Z,-872.85
2019-02-26T02:21:25.946Z,-875.18
2019-02-26T02:22:24.896Z,-875.51
2019-02-26T02:23:25.710Z,-868.88
2019-02-26T02:24:25.415Z,-872.81
2019-02-26T02:25:28.910Z,-877.70
2019-02-26T02:26:25.933Z,-874.18
2019-02-26T02:27:27.279Z,-876.13
2019-02-26T02:28:28.472Z,-875.85
2019-02-26T02:29:28.520Z,-875.83
2019-02-26T02:30:30.282Z,-876.47
2019-02-26T02:31:31.038Z,-874.30
2019-02-26T02:32:29.566Z,-876.38
2019-02-26T02:33:29.596Z,-874.43
2019-02-26T02:34:29.409Z,-874.44
2019-02-26T02:35:28.529Z,-875.37
2019-02-26T02:36:28.545Z,-869.92
2019-02-26T02:37:29.503Z,-870.46
2019-02-26T02:38:29.073Z,-875.58
2019-02-26T02:39:29.373Z,-876.21
2019-02-26T02:40:29.606Z,-876.25
2019-02-26T02:41:29.862Z,-878.22
2019-02-26T02:42:30.138Z,-870.10
2019-02-26T02:43:30.373Z,-875.37
2019-02-26T02:44:30.629Z,-873.89
2019-02-26T02:45:30.923Z,-872.85
2019-02-26T02:46:31.167Z,-876.98
2019-02-26T02:47:33.850Z,-875.79
2019-02-26T02:48:31.722Z,-871.48
2019-02-26T02:49:32.755Z,-873.99
2019-02-26T02:50:32.234Z,-879.41
2019-02-26T02:51:33.958Z,-880.34
2019-02-26T02:52:34.831Z,-877.67
2019-02-26T02:53:32.987Z,-873.34
2019-02-26T02:54:33.270Z,-879.57
2019-02-26T02:55:33.574Z,-879.61
2019-02-26T02:56:35.589Z,-871.39
2019-02-26T02:57:34.415Z,-874.95
2019-02-26T02:58:34.329Z,-882.16
2019-02-26T02:59:36.622Z,-875.06
2019-02-26T03:00:34.852Z,-878.44
2019-02-26T03:01:35.121Z,-881.08
2019-02-26T03:02:37.957Z,-878.80
2019-02-26T03:03:36.648Z,-878.28
2019-02-26T03:04:36.029Z,-881.39
2019-02-26T03:05:37.369Z,-880.35
2019-02-26T03:06:38.615Z,-878.23
2019-02-26T03:07:36.697Z,-877.62
2019-02-26T03:08:36.975Z,-879.84
2019-02-26T03:09:37.800Z,-881.33
2019-02-26T03:10:39.509Z,-872.51
2019-02-26T03:11:41.139Z,-883.01
2019-02-26T03:12:38.076Z,-878.65
2019-02-26T03:13:40.262Z,-881.54
2019-02-26T03:14:39.166Z,-879.47
2019-02-26T03:15:38.789Z,-872.56
2019-02-26T03:16:41.902Z,-880.10
2019-02-26T03:17:39.283Z,-878.21
2019-02-26T03:18:39.576Z,-878.69
2019-02-26T03:19:41.589Z,-883.31
2019-02-26T03:20:40.425Z,-879.74
2019-02-26T03:21:41.934Z,-881.73
2019-02-26T03:22:42.238Z,-877.09
2019-02-26T03:23:43.021Z,-878.70
2019-02-26T03:24:41.128Z,-877.38
2019-02-26T03:25:42.072Z,-881.38
2019-02-26T03:26:41.628Z,-874.70
2019-02-26T03:27:42.579Z,-874.89
2019-02-26T03:28:44.191Z,-878.68
2019-02-26T03:29:42.685Z,-883.92
2019-02-26T03:30:44.322Z,-877.40
2019-02-26T03:31:46.748Z,-882.56
2019-02-26T03:32:45.926Z,-887.91
2019-02-26T03:33:44.463Z,-885.70
2019-02-26T03:34:43.712Z,-880.54
2019-02-26T03:35:43.987Z,-938.17
2019-02-26T03:36:45.646Z,-934.08
2019-02-26T03:37:44.613Z,-930.63
2019-02-26T03:38:46.671Z,-934.31
2019-02-26T03:39:45.028Z,-936.33
2019-02-26T03:40:45.319Z,-937.19
2019-02-26T03:41:46.057Z,-930.90
2019-02-26T03:42:46.294Z,-932.16
2019-02-26T03:43:46.077Z,-929.96
2019-02-26T03:44:46.946Z,-936.01
2019-02-26T03:45:48.040Z,-931.86
2019-02-26T03:46:46.857Z,-937.43
2019-02-26T03:47:47.121Z,-930.05
2019-02-26T03:48:47.396Z,-934.90
2019-02-26T03:49:47.637Z,-936.19
2019-02-26T03:50:47.920Z,-931.34
2019-02-26T03:51:48.172Z,-932.68
2019-02-26T03:52:48.434Z,-935.26
2019-02-26T03:53:48.737Z,-932.49
2019-02-26T03:54:50.644Z,-938.96
2019-02-26T03:55:49.178Z,-931.10
2019-02-26T03:56:49.449Z,-931.27
2019-02-26T03:57:51.079Z,-933.53
2019-02-26T03:58:52.214Z,-934.15
2019-02-26T03:59:50.242Z,-935.50
2019-02-26T04:00:50.517Z,-937.87
2019-02-26T04:01:50.839Z,-934.29
2019-02-26T04:02:51.715Z,-934.23
2019-02-26T04:03:51.276Z,-933.16
2019-02-26T04:04:53.977Z,-932.67
2019-02-26T04:05:51.811Z,-938.12
2019-02-26T04:06:52.071Z,-933.95
2019-02-26T04:07:53.231Z,-933.56
2019-02-26T04:08:53.591Z,-931.90
2019-02-26T04:09:53.125Z,-935.47
2019-02-26T04:10:55.183Z,-932.64
2019-02-26T04:11:55.332Z,-936.93
2019-02-26T04:12:55.155Z,-930.10
2019-02-26T04:13:56.132Z,-935.04
2019-02-26T04:14:54.181Z,-934.96
2019-02-26T04:15:56.413Z,-930.51
2019-02-26T04:16:55.948Z,-934.02
2019-02-26T04:17:54.958Z,-933.28
2019-02-26T04:18:55.345Z,-935.07
2019-02-26T04:19:55.497Z,-933.03
2019-02-26T04:20:59.809Z,-933.74
2019-02-26T04:21:56.010Z,-934.10
2019-02-26T04:22:56.795Z,-933.62
2019-02-26T04:23:58.646Z,-932.31
2019-02-26T04:25:00.685Z,-933.49
2019-02-26T04:25:59.482Z,-939.11
2019-02-26T04:26:57.622Z,-930.20
2019-02-26T04:27:59.170Z,-932.20
2019-02-26T04:28:57.809Z,-922.19
2019-02-26T04:29:58.066Z,-930.64
2019-02-26T04:30:58.316Z,-930.02
2019-02-26T04:31:58.589Z,-929.31
2019-02-26T04:32:58.832Z,-936.56
2019-02-26T04:34:01.659Z,-935.72
2019-02-26T04:35:02.407Z,-936.73
2019-02-26T04:35:59.602Z,-932.74
2019-02-26T04:37:01.518Z,-933.45
2019-02-26T04:38:00.919Z,-932.32
2019-02-26T04:39:00.418Z,-934.99
2019-02-26T04:40:01.600Z,-933.49
2019-02-26T04:41:02.945Z,-929.80
2019-02-26T04:42:03.613Z,-930.44
2019-02-26T04:43:01.894Z,-929.50
2019-02-26T04:44:03.385Z,-933.68
2019-02-26T04:45:04.364Z,-934.58
2019-02-26T04:46:02.871Z,-935.41
2019-02-26T04:47:03.511Z,-931.22
2019-02-26T04:48:02.739Z,-934.49
2019-02-26T04:49:03.033Z,-932.22
2019-02-26T04:50:06.120Z,-933.20
2019-02-26T04:51:03.554Z,-934.31
2019-02-26T04:52:05.003Z,-930.62
2019-02-26T04:53:05.011Z,-930.72
2019-02-26T04:54:04.347Z,-937.58
2019-02-26T04:55:04.609Z,-927.37
2019-02-26T04:56:05.957Z,-931.19
2019-02-26T04:57:05.123Z,-929.44
2019-02-26T04:58:05.348Z,-932.95
2019-02-26T04:59:06.214Z,-926.73
2019-02-26T05:00:07.258Z,-930.77
2019-02-26T05:01:07.273Z,-932.39
2019-02-26T05:02:06.425Z,-930.93
2019-02-26T05:03:07.862Z,-928.50
2019-02-26T05:04:06.965Z,-934.09
2019-02-26T05:05:07.186Z,-928.70
2019-02-26T05:06:07.954Z,-930.15
2019-02-26T05:07:10.379Z,-926.79
2019-02-26T05:08:10.023Z,-925.87
2019-02-26T05:09:10.469Z,-926.90
2019-02-26T05:10:08.505Z,-924.03
2019-02-26T05:11:08.768Z,-925.36
2019-02-26T05:12:09.037Z,-881.09
2019-02-26T05:13:09.697Z,-878.66
2019-02-26T05:14:11.512Z,-874.17
2019-02-26T05:15:11.531Z,-871.10
2019-02-26T05:16:10.123Z,-874.38
2019-02-26T05:17:10.319Z,-873.09
2019-02-26T05:18:10.572Z,-873.75
2019-02-26T05:19:13.512Z,-868.44
2019-02-26T05:20:12.982Z,-876.31
2019-02-26T05:21:12.874Z,-872.98
2019-02-26T05:22:11.637Z,-873.20
2019-02-26T05:23:11.889Z,-869.57
2019-02-26T05:24:13.098Z,-872.21
2019-02-26T05:25:14.741Z,-874.12
2019-02-26T05:26:15.238Z,-865.03
2019-02-26T05:27:15.308Z,-875.53
2019-02-26T05:28:14.760Z,-875.39
2019-02-26T05:29:13.490Z,-874.90
2019-02-26T05:30:16.259Z,-871.85
2019-02-26T05:31:17.148Z,-874.45
2019-02-26T05:32:14.273Z,-872.27
2019-02-26T05:33:14.589Z,-870.21
2019-02-26T05:34:15.133Z,-870.47
2019-02-26T05:35:17.276Z,-880.56
2019-02-26T05:36:17.040Z,-869.93
2019-02-26T05:37:15.543Z,-871.66
2019-02-26T05:38:15.801Z,-878.44
2019-02-26T05:39:18.051Z,-873.30
2019-02-26T05:40:18.784Z,-870.58
2019-02-26T05:41:17.710Z,-871.09
2019-02-26T05:42:16.861Z,-874.91
2019-02-26T05:43:17.110Z,-875.09
2019-02-26T05:44:17.373Z,-872.42
2019-02-26T05:45:17.659Z,-873.86
2019-02-26T05:46:18.971Z,-871.11
2019-02-26T05:47:19.303Z,-874.41
2019-02-26T05:48:20.459Z,-870.51
2019-02-26T05:49:19.497Z,-871.23
2019-02-26T05:50:19.199Z,-872.49
2019-02-26T05:51:19.251Z,-872.41
2019-02-26T05:52:21.403Z,-870.71
2019-02-26T05:53:19.711Z,-875.27
2019-02-26T05:54:21.586Z,-868.78
2019-02-26T05:55:22.902Z,-873.02
2019-02-26T05:56:22.621Z,-871.74
2019-02-26T05:57:27.622Z,-872.24
2019-02-26T05:58:22.008Z,-869.08
2019-02-26T05:59:21.754Z,-874.93
2019-02-26T06:00:25.240Z,-864.74
2019-02-26T06:01:24.904Z,-872.16
2019-02-26T06:02:24.362Z,-871.33
2019-02-26T06:03:22.330Z,-869.71
2019-02-26T06:04:22.593Z,-874.61
2019-02-26T06:05:23.342Z,-874.19
2019-02-26T06:06:23.139Z,-872.95
2019-02-26T06:07:24.471Z,-876.24
2019-02-26T06:08:25.813Z,-872.31
2019-02-26T06:09:26.106Z,-869.59
2019-02-26T06:10:24.576Z,-872.64
2019-02-26T06:11:28.336Z,-866.89
2019-02-26T06:12:25.698Z,-872.43
2019-02-26T06:13:24.950Z,-870.86
2019-02-26T06:14:27.189Z,-868.19
2019-02-26T06:15:25.925Z,-871.03
2019-02-26T06:16:26.612Z,-868.98
2019-02-26T06:17:25.986Z,-866.79
2019-02-26T06:18:26.288Z,-871.29
2019-02-26T06:19:26.506Z,-871.69
2019-02-26T06:20:28.714Z,-868.34
2019-02-26T06:21:27.039Z,-872.95
2019-02-26T06:22:29.223Z,-868.35
2019-02-26T06:23:28.192Z,-866.32
2019-02-26T06:24:29.660Z,-870.97
2019-02-26T06:25:28.108Z,-869.63
2019-02-26T06:26:32.391Z,-870.77
2019-02-26T06:27:28.595Z,-866.88
2019-02-26T06:28:28.887Z,-868.04
2019-02-26T06:29:29.807Z,-867.32
2019-02-26T06:30:29.484Z,-869.47
2019-02-26T06:31:29.680Z,-870.78
2019-02-26T06:32:31.987Z,-867.02
2019-02-26T06:33:32.047Z,-870.54
2019-02-26T06:34:30.447Z,-875.02
2019-02-26T06:35:31.541Z,-871.78
2019-02-26T06:36:30.984Z,-872.20
2019-02-26T06:37:33.031Z,-870.65
2019-02-26T06:38:32.774Z,-877.84
2019-02-26T06:39:33.860Z,-875.53
2019-02-26T06:40:34.462Z,-877.98
2019-02-26T06:41:32.601Z,-880.01
2019-02-26T06:42:33.228Z,-874.31
2019-02-26T06:43:35.424Z,-878.36
2019-02-26T06:44:33.016Z,-872.09
2019-02-26T06:45:33.314Z,-873.61
2019-02-26T06:46:33.787Z,-872.51
2019-02-26T06:47:33.863Z,-875.80
2019-02-26T06:48:34.093Z,-871.97
2019-02-26T06:49:34.321Z,-875.83
2019-02-26T06:50:36.263Z,-877.11
2019-02-26T06:51:34.873Z,-876.24
2019-02-26T06:52:37.140Z,-876.11
2019-02-26T06:53:35.413Z,-875.80
2019-02-26T06:54:35.667Z,-874.11
2019-02-26T06:55:36.053Z,-874.01
2019-02-26T06:56:41.242Z,-877.51
2019-02-26T06:57:38.789Z,-869.97
2019-02-26T06:58:38.031Z,-877.30
2019-02-26T06:59:36.996Z,-873.78
2019-02-26T07:00:37.240Z,-875.83
2019-02-26T07:01:39.320Z,-870.39
2019-02-26T07:02:37.792Z,-875.52
2019-02-26T07:03:40.325Z,-868.94
2019-02-26T07:04:38.286Z,-876.40
2019-02-26T07:05:38.556Z,-877.76
2019-02-26T07:06:38.824Z,-872.78
2019-02-26T07:07:39.095Z,-873.54
2019-02-26T07:08:39.352Z,-874.12
2019-02-26T07:09:41.410Z,-873.00
2019-02-26T07:10:39.874Z,-866.19
2019-02-26T07:11:40.188Z,-869.90
2019-02-26T07:12:41.344Z,-874.53
2019-02-26T07:13:41.161Z,-871.61
2019-02-26T07:14:40.886Z,-871.47
2019-02-26T07:15:42.907Z,-871.36
2019-02-26T07:16:41.422Z,-868.65
2019-02-26T07:17:42.952Z,-871.09
2019-02-26T07:18:41.947Z,-871.83
2019-02-26T07:19:42.242Z,-874.53
2019-02-26T07:20:46.534Z,-875.67
2019-02-26T07:21:42.872Z,-879.98
2019-02-26T07:22:43.774Z,-874.09
2019-02-26T07:23:43.218Z,-875.17
2019-02-26T07:24:44.566Z,-874.49
2019-02-26T07:25:44.073Z,-877.75
2019-02-26T07:26:45.863Z,-880.62
2019-02-26T07:27:44.306Z,-876.76
2019-02-26T07:28:46.351Z,-871.77
2019-02-26T07:29:45.592Z,-875.56
2019-02-26T07:30:46.864Z,-870.38
2019-02-26T07:31:47.152Z,-875.01
2019-02-26T07:32:48.048Z,-874.00
2019-02-26T07:33:45.883Z,-876.27
2019-02-26T07:34:47.272Z,-876.46
2019-02-26T07:35:46.394Z,-874.36
2019-02-26T07:36:47.871Z,-873.89
2019-02-26T07:37:46.921Z,-879.36
2019-02-26T07:38:49.140Z,-876.59
2019-02-26T07:39:49.231Z,-877.46
2019-02-26T07:40:47.682Z,-877.05
2019-02-26T07:41:49.269Z,-878.61
2019-02-26T07:42:49.193Z,-878.10
2019-02-26T07:43:49.280Z,-876.27
2019-02-26T07:44:48.855Z,-874.97
2019-02-26T07:45:51.209Z,-882.17
2019-02-26T07:46:49.272Z,-880.04
2019-02-26T07:47:51.006Z,-876.38
2019-02-26T07:48:53.555Z,-883.28
2019-02-26T07:49:50.012Z,-878.09
2019-02-26T07:50:50.705Z,-877.71
2019-02-26T07:51:50.562Z,-881.52
2019-02-26T07:52:52.097Z,-879.44
2019-02-26T07:53:51.637Z,-882.55
2019-02-26T07:54:51.863Z,-876.93
2019-02-26T07:55:51.557Z,-879.39
2019-02-26T07:56:52.502Z,-880.24
2019-02-26T07:57:53.026Z,-882.45
2019-02-26T07:58:52.409Z,-879.48
2019-02-26T07:59:52.632Z,-881.24
2019-02-26T08:00:52.966Z,-876.98
2019-02-26T08:01:53.126Z,-873.33
2019-02-26T08:02:54.798Z,-881.97
2019-02-26T08:03:53.677Z,-880.15
2019-02-26T08:04:53.924Z,-881.32
2019-02-26T08:05:54.186Z,-882.29
2019-02-26T08:06:56.729Z,-883.03
2019-02-26T08:07:56.439Z,-886.00
2019-02-26T08:08:55.028Z,-885.59
2019-02-26T08:09:55.321Z,-884.94
2019-02-26T08:10:55.522Z,-882.67
2019-02-26T08:11:55.829Z,-888.92
2019-02-26T08:12:56.637Z,-884.16
2019-02-26T08:13:56.736Z,-887.76
2019-02-26T08:14:56.549Z,-889.27
2019-02-26T08:15:57.696Z,-886.82
2019-02-26T08:16:58.848Z,-880.79
2019-02-26T08:17:58.459Z,-887.93
2019-02-26T08:18:58.879Z,-889.60
2019-02-26T08:19:57.857Z,-879.72
2019-02-26T08:20:59.922Z,-885.97
2019-02-26T08:21:58.392Z,-885.06
2019-02-26T08:22:59.462Z,-884.46
2019-02-26T08:23:58.906Z,-883.74
2019-02-26T08:24:59.169Z,-886.08
2019-02-26T08:26:00.313Z,-878.96
2019-02-26T08:27:00.958Z,-882.61
2019-02-26T08:28:01.186Z,-876.51
2019-02-26T08:29:02.141Z,-877.37
2019-02-26T08:30:00.986Z,-877.20
2019-02-26T08:31:00.739Z,-874.08
2019-02-26T08:32:01.939Z,-879.62
2019-02-26T08:33:04.337Z,-880.06
2019-02-26T08:34:01.564Z,-880.86
2019-02-26T08:35:01.769Z,-880.56
2019-02-26T08:36:02.050Z,-880.85
2019-02-26T08:37:02.354Z,-885.76
2019-02-26T08:38:05.677Z,-884.09
2019-02-26T08:39:02.876Z,-880.96
2019-02-26T08:40:03.144Z,-875.43
2019-02-26T08:41:03.364Z,-877.38
2019-02-26T08:42:03.703Z,-883.29
2019-02-26T08:43:03.889Z,-880.02
2019-02-26T08:44:04.160Z,-883.88
2019-02-26T08:45:04.438Z,-884.41
2019-02-26T08:46:06.751Z,-884.86
2019-02-26T08:47:08.781Z,-888.25
2019-02-26T08:48:06.203Z,-886.71
2019-02-26T08:49:08.308Z,-882.48
2019-02-26T08:50:07.214Z,-884.06
2019-02-26T08:51:08.148Z,-874.23
2019-02-26T08:52:06.297Z,-881.50
2019-02-26T08:53:06.522Z,-875.77
2019-02-26T08:54:06.790Z,-877.90
2019-02-26T08:55:07.173Z,-882.61
2019-02-26T08:56:08.384Z,-929.10
2019-02-26T08:57:07.605Z,-928.11
2019-02-26T08:58:09.894Z,-934.24
2019-02-26T08:59:08.195Z,-932.98
2019-02-26T09:00:08.357Z,-931.87
2019-02-26T09:01:08.588Z,-932.70
2019-02-26T09:02:08.890Z,-929.77
2019-02-26T09:03:10.713Z,-930.20
2019-02-26T09:04:09.404Z,-926.63
2019-02-26T09:05:11.811Z,-925.36
2019-02-26T09:06:13.337Z,-928.89
2019-02-26T09:07:10.253Z,-927.28
2019-02-26T09:08:10.894Z,-874.18
2019-02-26T09:09:10.688Z,-881.36
2019-02-26T09:10:12.609Z,-879.38
2019-02-26T09:11:13.025Z,-877.45
2019-02-26T09:12:11.477Z,-879.56
2019-02-26T09:13:13.491Z,-879.42
2019-02-26T09:14:13.954Z,-881.67
2019-02-26T09:15:12.268Z,-878.35
2019-02-26T09:16:12.476Z,-881.17
2019-02-26T09:17:12.769Z,-873.52
2019-02-26T09:18:13.011Z,-877.61
2019-02-26T09:19:13.284Z,-883.94
2019-02-26T09:20:14.629Z,-882.97
2019-02-26T09:21:15.217Z,-881.67
2019-02-26T09:22:14.973Z,-882.09
2019-02-26T09:23:16.583Z,-881.43
2019-02-26T09:24:14.604Z,-881.89
2019-02-26T09:25:14.876Z,-882.39
2019-02-26T09:26:15.120Z,-881.36
2019-02-26T09:27:15.401Z,-880.39
2019-02-26T09:28:15.637Z,-877.80
2019-02-26T09:29:17.287Z,-880.58
2019-02-26T09:30:16.336Z,-879.82
2019-02-26T09:31:16.437Z,-878.17
2019-02-26T09:32:18.244Z,-875.48
2019-02-26T09:33:16.926Z,-877.10
2019-02-26T09:34:17.195Z,-872.97
2019-02-26T09:35:19.135Z,-874.40
2019-02-26T09:36:21.003Z,-874.66
2019-02-26T09:37:17.988Z,-887.28
2019-02-26T09:38:20.216Z,-883.58
2019-02-26T09:39:18.515Z,-876.57
2019-02-26T09:40:20.375Z,-877.03
2019-02-26T09:41:20.972Z,-876.71
2019-02-26T09:42:20.997Z,-876.42
2019-02-26T09:43:22.009Z,-876.32
2019-02-26T09:44:19.856Z,-872.33
2019-02-26T09:45:22.418Z,-875.77
2019-02-26T09:46:20.376Z,-873.72
2019-02-26T09:47:21.214Z,-872.28
2019-02-26T09:48:21.903Z,-864.74
2019-02-26T09:49:21.139Z,-871.25
2019-02-26T09:50:22.572Z,-869.43
2019-02-26T09:51:21.670Z,-871.03
2019-02-26T09:52:24.625Z,-871.85
2019-02-26T09:53:22.188Z,-865.83
2019-02-26T09:54:22.583Z,-869.29
2019-02-26T09:55:22.726Z,-867.78
2019-02-26T09:56:23.019Z,-875.71
2019-02-26T09:57:23.283Z,-875.16
2019-02-26T09:58:25.216Z,-868.80
2019-02-26T09:59:23.723Z,-876.26
2019-02-26T10:00:25.865Z,-877.41
2019-02-26T10:01:24.258Z,-872.49
2019-02-26T10:02:26.119Z,-868.23
2019-02-26T10:03:24.823Z,-876.42
2019-02-26T10:04:26.503Z,-872.05
2019-02-26T10:05:25.401Z,-876.23
2019-02-26T10:06:25.563Z,-879.38
2019-02-26T10:07:26.141Z,-881.99
2019-02-26T10:08:27.298Z,-872.16
2019-02-26T10:09:26.345Z,-876.88
2019-02-26T10:10:28.345Z,-876.03
2019-02-26T10:11:27.890Z,-869.84
2019-02-26T10:12:28.039Z,-878.36
2019-02-26T10:13:27.801Z,-880.48
2019-02-26T10:14:28.806Z,-877.63
2019-02-26T10:15:27.929Z,-874.78
2019-02-26T10:16:30.495Z,-873.83
2019-02-26T10:17:28.457Z,-875.74
2019-02-26T10:18:30.500Z,-871.30
2019-02-26T10:19:30.857Z,-876.72
2019-02-26T10:20:31.503Z,-876.98
2019-02-26T10:21:29.562Z,-872.24
2019-02-26T10:22:33.314Z,-879.44
2019-02-26T10:23:33.112Z,-872.42
2019-02-26T10:24:32.325Z,-871.32
2019-02-26T10:25:31.962Z,-871.43
2019-02-26T10:26:33.111Z,-876.40
2019-02-26T10:27:33.618Z,-876.88
2019-02-26T10:28:35.196Z,-872.41
2019-02-26T10:29:36.436Z,-873.15
2019-02-26T10:30:33.276Z,-878.45
2019-02-26T10:31:32.075Z,-880.42
2019-02-26T10:32:32.750Z,-873.93
2019-02-26T10:33:33.715Z,-881.56
2019-02-26T10:34:32.890Z,-880.96
2019-02-26T10:35:33.683Z,-877.46
2019-02-26T10:36:35.008Z,-870.57
2019-02-26T10:37:36.214Z,-874.89
2019-02-26T10:38:35.984Z,-879.17
2019-02-26T10:39:34.175Z,-870.90
2019-02-26T10:40:35.637Z,-868.83
2019-02-26T10:41:36.757Z,-873.87
2019-02-26T10:42:39.731Z,-871.33
2019-02-26T10:43:36.231Z,-874.13
2019-02-26T10:44:35.475Z,-871.43
2019-02-26T10:45:38.714Z,-873.30
2019-02-26T10:46:39.337Z,-873.86
2019-02-26T10:47:36.545Z,-874.97
2019-02-26T10:48:36.593Z,-871.94
2019-02-26T10:49:36.825Z,-873.35
2019-02-26T10:50:39.227Z,-870.48
2019-02-26T10:51:37.379Z,-874.31
2019-02-26T10:52:37.621Z,-874.14
2019-02-26T10:53:38.214Z,-872.19
2019-02-26T10:54:40.358Z,-875.43
2019-02-26T10:55:39.338Z,-874.79
2019-02-26T10:56:40.111Z,-872.69
2019-02-26T10:57:38.925Z,-870.19
2019-02-26T10:58:39.215Z,-871.02
2019-02-26T10:59:41.788Z,-872.63
2019-02-26T11:00:39.698Z,-873.96
2019-02-26T11:01:39.977Z,-870.99
2019-02-26T11:02:40.696Z,-875.23
2019-02-26T11:03:43.474Z,-879.83
2019-02-26T11:04:41.817Z,-875.66
2019-02-26T11:05:42.386Z,-874.29
2019-02-26T11:06:42.300Z,-871.97
2019-02-26T11:07:41.535Z,-874.08
2019-02-26T11:08:41.812Z,-874.69
2019-02-26T11:09:44.697Z,-873.82
2019-02-26T11:10:44.360Z,-877.55
2019-02-26T11:11:42.576Z,-867.78
2019-02-26T11:12:42.843Z,-874.70
2019-02-26T11:13:45.271Z,-872.02
2019-02-26T11:14:44.192Z,-876.11
2019-02-26T11:15:43.637Z,-871.92
2019-02-26T11:16:43.907Z,-875.78
2019-02-26T11:17:45.633Z,-874.15
2019-02-26T11:18:44.921Z,-872.45
2019-02-26T11:19:44.643Z,-875.39
2019-02-26T11:20:45.790Z,-878.27
2019-02-26T11:21:47.330Z,-871.45
2019-02-26T11:22:47.070Z,-869.00
2019-02-26T11:23:46.321Z,-871.80
2019-02-26T11:24:48.367Z,-866.95
2019-02-26T11:25:46.236Z,-867.13
2019-02-26T11:26:46.573Z,-866.38
2019-02-26T11:27:48.456Z,-862.94
2019-02-26T11:28:47.757Z,-868.59
2019-02-26T11:29:47.424Z,-872.55
2019-02-26T11:30:49.013Z,-871.45
2019-02-26T11:31:49.642Z,-873.10
2019-02-26T11:32:48.081Z,-863.55
2019-02-26T11:33:48.395Z,-869.92
2019-02-26T11:34:50.290Z,-866.98
2019-02-26T11:35:51.276Z,-875.71
2019-02-26T11:36:49.237Z,-868.74
2019-02-26T11:37:49.947Z,-873.75
2019-02-26T11:38:49.674Z,-865.69
2019-02-26T11:39:49.893Z,-869.12
2019-02-26T11:40:50.170Z,-861.57
2019-02-26T11:41:53.106Z,-860.97
2019-02-26T11:42:51.270Z,-866.69
2019-02-26T11:43:51.079Z,-870.28
2019-02-26T11:44:51.185Z,-870.30
2019-02-26T11:45:51.468Z,-864.62
2019-02-26T11:46:53.697Z,-864.22
2019-02-26T11:47:51.993Z,-864.80
2019-02-26T11:48:52.535Z,-864.59
2019-02-26T11:49:52.523Z,-863.65
2019-02-26T11:50:52.771Z,-863.03
2019-02-26T11:51:53.139Z,-863.69
2019-02-26T11:52:54.791Z,-863.32
2019-02-26T11:53:53.569Z,-859.97
2019-02-26T11:54:53.837Z,-866.85
2019-02-26T11:55:54.981Z,-861.28
2019-02-26T11:56:54.371Z,-863.28
2019-02-26T11:57:54.624Z,-859.14
2019-02-26T11:58:54.959Z,-869.22
2019-02-26T11:59:57.040Z,-859.06
2019-02-26T12:00:56.918Z,-862.90
2019-02-26T12:01:56.372Z,-865.33
2019-02-26T12:02:55.917Z,-861.82
2019-02-26T12:04:02.485Z,-864.18
2019-02-26T12:04:59.619Z,-864.39
2019-02-26T12:05:58.675Z,-862.39
2019-02-26T12:06:58.481Z,-863.11
2019-02-26T12:07:58.773Z,-864.94
2019-02-26T12:08:57.581Z,-868.08